createdAt,value
2018-04-18T00:00:53.904Z,6.75
2018-04-18T00:03:22.169Z,6.85
2018-04-18T00:05:49.672Z,6.50
2018-04-18T00:08:17.153Z,6.93
2018-04-18T00:10:44.612Z,6.80
2018-04-18T00:13:12.112Z,6.55
2018-04-18T00:15:40.333Z,6.45
2018-04-18T00:18:07.840Z,7.30
2018-04-18T00:20:35.301Z,6.43
2018-04-18T00:23:03.545Z,6.85
2018-04-18T00:25:31.029Z,6.40
2018-04-18T00:27:58.505Z,7.22
2018-04-18T00:30:26.739Z,6.57
2018-04-18T00:32:54.213Z,6.65
2018-04-18T00:35:21.721Z,7.35
2018-04-18T00:37:49.293Z,7.07
2018-04-18T00:40:16.757Z,7.22
2018-04-18T00:42:44.276Z,6.97
2018-04-18T00:45:12.520Z,7.37
2018-04-18T00:47:40.047Z,7.68
2018-04-18T00:50:07.493Z,7.35
2018-04-18T00:52:34.996Z,7.55
2018-04-18T00:55:02.465Z,7.20
2018-04-18T00:57:30.720Z,7.25
2018-04-18T00:59:58.169Z,7.15
2018-04-18T01:02:25.665Z,7.28
2018-04-18T01:04:53.132Z,7.45
2018-04-18T01:07:20.631Z,7.70
2018-04-18T01:09:48.092Z,7.82
2018-04-18T01:12:15.599Z,7.28
2018-04-18T01:14:43.070Z,6.65
2018-04-18T01:17:11.305Z,7.10
2018-04-18T01:19:38.790Z,6.85
2018-04-18T01:22:06.245Z,6.75
2018-04-18T01:24:33.725Z,7.22
2018-04-18T01:27:01.957Z,6.87
2018-04-18T01:29:29.456Z,6.65
2018-04-18T01:31:57.685Z,7.10
2018-04-18T01:34:25.174Z,7.75
2018-04-18T01:36:52.648Z,7.72
2018-04-18T01:39:20.129Z,7.93
2018-04-18T01:41:47.595Z,6.25
2018-04-18T01:44:15.088Z,7.12
2018-04-18T01:46:42.535Z,7.80
2018-04-18T01:49:21.926Z,7.87
2018-04-18T01:51:50.160Z,8.40
2018-04-18T01:54:17.640Z,7.10
2018-04-18T01:56:45.123Z,7.65
2018-04-18T01:59:13.381Z,7.45
2018-04-18T02:01:40.863Z,6.97
2018-04-18T02:04:09.112Z,9.07
2018-04-18T02:06:36.611Z,8.43
2018-04-18T02:09:04.088Z,7.32
2018-04-18T02:11:31.583Z,7.82
2018-04-18T02:13:59.057Z,7.85
2018-04-18T02:16:27.279Z,7.70
2018-04-18T02:18:54.760Z,6.55
2018-04-18T02:21:22.242Z,7.00
2018-04-18T02:23:49.725Z,7.35
2018-04-18T02:26:17.993Z,7.50
2018-04-18T02:28:46.224Z,7.82
2018-04-18T02:31:13.731Z,7.10
2018-04-18T02:33:41.949Z,7.90
2018-04-18T02:36:09.448Z,7.65
2018-04-18T02:38:38.337Z,8.15
2018-04-18T02:41:05.842Z,7.70
2018-04-18T02:43:33.318Z,8.02
2018-04-18T02:46:00.788Z,8.20
2018-04-18T02:48:28.265Z,8.57
2018-04-18T02:50:55.761Z,7.87
2018-04-18T02:53:24.001Z,6.68
2018-04-18T02:55:51.489Z,7.78
2018-04-18T02:58:19.737Z,8.30
2018-04-18T03:00:47.208Z,8.35
2018-04-18T03:03:15.463Z,8.07
2018-04-18T03:05:42.965Z,7.85
2018-04-18T03:08:10.455Z,8.40
2018-04-18T03:10:37.951Z,7.72
2018-04-18T03:13:05.409Z,8.80
2018-04-18T03:15:32.912Z,9.75
2018-04-18T03:18:00.364Z,9.13
2018-04-18T03:20:27.879Z,8.27
2018-04-18T03:22:55.352Z,8.25
2018-04-18T03:25:22.851Z,8.00
2018-04-18T03:27:50.312Z,9.35
2018-04-18T03:30:17.808Z,7.95
2018-04-18T03:32:45.279Z,9.63
2018-04-18T03:35:12.760Z,10.02
2018-04-18T03:37:41.013Z,9.02
2018-04-18T03:40:08.511Z,8.93
2018-04-18T03:42:35.991Z,8.15
2018-04-18T03:45:03.441Z,8.43
2018-04-18T03:47:30.952Z,8.60
2018-04-18T03:49:58.408Z,9.38
2018-04-18T03:52:25.902Z,9.57
2018-04-18T03:54:53.369Z,8.50
2018-04-18T03:57:20.865Z,8.63
2018-04-18T03:59:48.322Z,9.43
2018-04-18T04:02:15.807Z,9.27
2018-04-18T04:04:44.041Z,9.52
2018-04-18T04:07:11.536Z,7.90
2018-04-18T04:09:38.993Z,8.90
2018-04-18T04:12:07.257Z,8.80
2018-04-18T04:14:34.724Z,8.68
2018-04-18T04:17:14.218Z,9.90
2018-04-18T04:19:53.460Z,9.38
2018-04-18T04:22:32.905Z,9.32
2018-04-18T04:25:00.372Z,9.77
2018-04-18T04:27:27.850Z,10.10
2018-04-18T04:29:55.341Z,10.18
2018-04-18T04:32:23.560Z,10.38
2018-04-18T04:34:51.069Z,10.05
2018-04-18T04:37:19.304Z,10.07
2018-04-18T04:39:46.797Z,10.77
2018-04-18T04:42:15.014Z,10.27
2018-04-18T04:44:42.497Z,10.75
2018-04-18T04:47:09.981Z,9.93
2018-04-18T04:49:37.472Z,10.02
2018-04-18T04:52:04.961Z,9.73
2018-04-18T04:54:32.457Z,9.77
2018-04-18T04:56:59.932Z,11.00
2018-04-18T04:59:28.195Z,10.25
2018-04-18T05:01:56.459Z,10.32
2018-04-18T05:04:23.942Z,12.30
2018-04-18T05:06:52.196Z,10.90
2018-04-18T05:09:19.674Z,10.57
2018-04-18T05:11:47.934Z,10.80
2018-04-18T05:14:15.438Z,10.52
2018-04-18T05:16:42.910Z,11.73
2018-04-18T05:19:10.364Z,11.93
2018-04-18T05:21:37.853Z,12.00
2018-04-18T05:24:06.099Z,12.95
2018-04-18T05:26:33.596Z,11.85
2018-04-18T05:29:01.073Z,10.90
2018-04-18T05:31:29.341Z,11.68
2018-04-18T05:33:56.809Z,12.50
2018-04-18T05:36:25.061Z,12.37
2018-04-18T05:38:52.545Z,11.55
2018-04-18T05:41:20.821Z,11.82
2018-04-18T05:43:49.048Z,13.40
2018-04-18T05:46:16.535Z,12.57
2018-04-18T05:48:44.041Z,12.93
2018-04-18T05:51:11.550Z,12.98
2018-04-18T05:53:39.032Z,12.45
2018-04-18T05:56:07.289Z,12.57
2018-04-18T05:58:34.762Z,15.15
2018-04-18T06:01:03.021Z,13.50
2018-04-18T06:03:30.520Z,15.82
2018-04-18T06:05:57.995Z,13.85
2018-04-18T06:08:25.509Z,15.73
2018-04-18T06:10:52.976Z,13.98
2018-04-18T06:13:21.246Z,14.30
2018-04-18T06:15:48.736Z,14.70
2018-04-18T06:18:16.242Z,13.95
2018-04-18T06:20:43.752Z,13.60
2018-04-18T06:23:11.241Z,12.75
2018-04-18T06:25:38.741Z,13.80
2018-04-18T06:28:06.977Z,14.93
2018-04-18T06:30:34.469Z,14.02
2018-04-18T06:33:01.971Z,12.75
2018-04-18T06:35:29.446Z,12.32
2018-04-18T06:37:56.972Z,11.75
2018-04-18T06:40:24.460Z,11.68
2018-04-18T06:42:51.975Z,12.82
2018-04-18T06:45:20.216Z,13.05
2018-04-18T06:47:47.688Z,11.48
2018-04-18T06:50:15.188Z,12.90
2018-04-18T06:52:42.662Z,12.03
2018-04-18T06:55:10.192Z,10.97
2018-04-18T06:57:38.517Z,11.10
2018-04-18T07:00:06.709Z,10.67
2018-04-18T07:02:34.221Z,10.93
2018-04-18T07:05:01.721Z,10.67
2018-04-18T07:07:29.226Z,10.10
2018-04-18T07:09:57.464Z,11.37
2018-04-18T07:12:24.964Z,10.90
2018-04-18T07:14:53.211Z,11.60
2018-04-18T07:17:20.703Z,12.10
2018-04-18T07:19:48.170Z,12.00
2018-04-18T07:22:15.695Z,11.03
2018-04-18T07:24:44.676Z,11.70
2018-04-18T07:27:12.213Z,11.67
2018-04-18T07:29:39.683Z,11.30
2018-04-18T07:32:07.210Z,13.30
2018-04-18T07:34:34.702Z,12.77
2018-04-18T07:37:02.168Z,12.70
2018-04-18T07:39:30.457Z,12.83
2018-04-18T07:41:59.437Z,12.07
2018-04-18T07:44:26.943Z,14.30
2018-04-18T07:46:55.164Z,15.70
2018-04-18T07:49:22.677Z,14.10
2018-04-18T07:51:51.033Z,13.70
2018-04-18T07:54:18.522Z,13.17
2018-04-18T07:56:45.991Z,12.20
2018-04-18T07:59:13.516Z,13.43
2018-04-18T08:01:41.765Z,13.30
2018-04-18T08:04:10.041Z,13.47
2018-04-18T08:06:37.520Z,14.13
2018-04-18T08:09:05.748Z,12.53
2018-04-18T08:11:33.263Z,11.70
2018-04-18T08:14:00.744Z,14.00
2018-04-18T08:16:29.019Z,12.57
2018-04-18T08:18:56.486Z,13.17
2018-04-18T08:21:23.984Z,12.17
2018-04-18T08:23:51.445Z,10.77
2018-04-18T08:26:18.957Z,12.60
2018-04-18T08:28:46.428Z,12.00
2018-04-18T08:31:13.946Z,11.77
2018-04-18T08:33:41.421Z,11.40
2018-04-18T08:36:10.352Z,10.77
2018-04-18T08:38:37.847Z,10.33
2018-04-18T08:41:05.361Z,12.40
2018-04-18T08:43:32.832Z,10.93
2018-04-18T08:46:00.327Z,12.37
2018-04-18T08:48:28.593Z,10.70
2018-04-18T08:50:56.064Z,10.00
2018-04-18T08:53:24.345Z,10.70
2018-04-18T08:55:52.588Z,11.33
2018-04-18T08:58:20.098Z,10.47
2018-04-18T09:00:48.336Z,10.83
2018-04-18T09:03:15.826Z,10.97
2018-04-18T09:05:44.081Z,10.20
2018-04-18T09:08:11.576Z,10.87
2018-04-18T09:10:39.044Z,11.43
2018-04-18T09:13:06.553Z,10.70
2018-04-18T09:15:34.042Z,9.80
2018-04-18T09:18:02.324Z,8.87
2018-04-18T09:20:29.783Z,9.93
2018-04-18T09:22:57.284Z,9.00
2018-04-18T09:25:24.761Z,9.87
2018-04-18T09:27:52.997Z,8.20
2018-04-18T09:30:20.512Z,8.50
2018-04-18T09:32:48.756Z,8.03
2018-04-18T09:35:16.273Z,7.17
2018-04-18T09:37:43.746Z,7.63
2018-04-18T09:40:11.253Z,8.30
2018-04-18T09:42:38.724Z,6.73
2018-04-18T09:45:07.005Z,6.43
2018-04-18T09:47:35.249Z,6.67
2018-04-18T09:50:02.738Z,6.07
2018-04-18T09:52:30.996Z,6.83
2018-04-18T09:54:58.492Z,5.77
2018-04-18T09:57:26.000Z,6.60
2018-04-18T09:59:53.498Z,7.20
2018-04-18T10:02:27.566Z,7.13
2018-04-18T10:04:55.057Z,5.90
2018-04-18T10:07:23.289Z,7.97
2018-04-18T10:09:50.814Z,6.60
2018-04-18T10:12:19.053Z,6.60
2018-04-18T10:14:46.549Z,6.73
2018-04-18T10:17:14.008Z,6.40
2018-04-18T10:19:41.504Z,5.97
2018-04-18T10:22:08.997Z,6.53
2018-04-18T10:24:36.479Z,5.97
2018-04-18T10:27:04.773Z,6.53
2018-04-18T10:29:32.235Z,5.97
2018-04-18T10:31:59.731Z,5.63
2018-04-18T10:34:27.217Z,6.47
2018-04-18T10:36:55.488Z,5.07
2018-04-18T10:39:22.945Z,4.90
2018-04-18T10:41:50.437Z,5.40
2018-04-18T10:44:17.916Z,5.70
2018-04-18T10:46:45.388Z,6.30
2018-04-18T10:49:12.905Z,5.70
2018-04-18T10:51:40.384Z,6.13
2018-04-18T10:54:07.882Z,6.03
2018-04-18T10:56:35.404Z,5.67
2018-04-18T10:59:02.893Z,5.30
2018-04-18T11:01:30.356Z,4.63
2018-04-18T11:03:57.865Z,5.37
2018-04-18T11:06:25.337Z,5.60
2018-04-18T11:08:52.898Z,5.30
2018-04-18T11:11:20.396Z,4.53
2018-04-18T11:13:47.876Z,4.37
2018-04-18T11:16:16.173Z,4.87
2018-04-18T11:18:44.485Z,4.30
2018-04-18T11:21:12.703Z,5.43
2018-04-18T11:23:41.676Z,4.90
2018-04-18T11:26:09.182Z,5.50
2018-04-18T11:28:36.666Z,5.60
2018-04-18T11:31:04.166Z,4.77
2018-04-18T11:33:31.670Z,5.67
2018-04-18T11:35:59.153Z,5.77
2018-04-18T11:38:26.613Z,6.63
2018-04-18T11:40:54.163Z,5.33
2018-04-18T11:43:21.756Z,4.73
2018-04-18T11:45:50.029Z,4.70
2018-04-18T11:48:17.543Z,5.73
2018-04-18T11:50:45.023Z,5.30
2018-04-18T11:53:12.500Z,5.30
2018-04-18T11:55:40.038Z,5.00
2018-04-18T11:58:07.509Z,4.70
2018-04-18T12:00:35.032Z,4.40
2018-04-18T12:03:02.539Z,4.50
2018-04-18T12:05:30.012Z,4.30
2018-04-18T12:07:57.522Z,4.80
2018-04-18T12:10:25.008Z,4.97
2018-04-18T12:12:52.533Z,5.27
2018-04-18T12:15:19.994Z,5.93
2018-04-18T12:17:47.452Z,5.87
2018-04-18T12:20:14.997Z,5.53
2018-04-18T12:22:42.501Z,4.90
2018-04-18T12:25:10.030Z,4.87
2018-04-18T12:27:37.541Z,5.07
2018-04-18T12:30:05.066Z,3.70
2018-04-18T12:32:32.537Z,4.27
2018-04-18T12:35:00.036Z,6.50
2018-04-18T12:37:28.281Z,6.00
2018-04-18T12:39:55.762Z,4.47
2018-04-18T12:42:23.989Z,3.90
2018-04-18T12:44:51.480Z,5.70
2018-04-18T12:47:18.962Z,4.83
2018-04-18T12:49:47.241Z,4.67
2018-04-18T12:52:15.512Z,4.33
2018-04-18T12:54:43.773Z,4.73
2018-04-18T12:57:11.249Z,4.40
2018-04-18T12:59:39.502Z,4.00
2018-04-18T13:02:06.997Z,4.07
2018-04-18T13:04:34.465Z,4.23
2018-04-18T13:07:01.977Z,3.80
2018-04-18T13:09:29.442Z,4.27
2018-04-18T13:11:56.947Z,4.73
2018-04-18T13:14:24.427Z,4.73
2018-04-18T13:16:51.928Z,4.23
2018-04-18T13:19:20.170Z,4.60
2018-04-18T13:21:47.690Z,4.17
2018-04-18T13:24:15.173Z,5.40
2018-04-18T13:26:42.645Z,4.80
2018-04-18T13:29:10.133Z,6.07
2018-04-18T13:31:38.356Z,5.33
2018-04-18T13:34:05.861Z,4.90
2018-04-18T13:36:33.328Z,5.40
2018-04-18T13:39:01.607Z,5.20
2018-04-18T13:41:29.091Z,5.00
2018-04-18T13:43:56.596Z,3.83
2018-04-18T13:46:24.069Z,3.80
2018-04-18T13:48:51.568Z,4.67
2018-04-18T13:51:19.035Z,3.90
2018-04-18T13:53:46.539Z,4.17
2018-04-18T13:56:14.002Z,5.33
2018-04-18T13:58:41.467Z,4.17
2018-04-18T14:01:08.991Z,3.90
2018-04-18T14:03:36.457Z,4.43
2018-04-18T14:06:03.948Z,4.40
2018-04-18T14:08:32.191Z,4.50
2018-04-18T14:10:59.692Z,3.93
2018-04-18T14:13:27.957Z,4.57
2018-04-18T14:15:55.429Z,4.33
2018-04-18T14:18:23.721Z,4.07
2018-04-18T14:20:52.014Z,3.90
2018-04-18T14:23:19.445Z,4.47
2018-04-18T14:25:47.669Z,3.70
2018-04-18T14:28:15.169Z,3.97
2018-04-18T14:30:43.428Z,4.40
2018-04-18T14:33:10.929Z,4.40
2018-04-18T14:35:39.169Z,4.63
2018-04-18T14:38:06.658Z,3.60
2018-04-18T14:40:34.135Z,3.90
2018-04-18T14:43:01.641Z,3.70
2018-04-18T14:45:29.113Z,3.70
2018-04-18T14:47:56.613Z,3.20
2018-04-18T14:50:24.929Z,3.03
2018-04-18T14:52:52.432Z,3.33
2018-04-18T14:55:21.013Z,4.00
2018-04-18T14:57:49.280Z,4.30
2018-04-18T15:00:17.537Z,3.60
2018-04-18T15:02:45.034Z,3.20
2018-04-18T15:05:12.563Z,3.60
2018-04-18T15:07:40.042Z,4.03
2018-04-18T15:10:08.407Z,3.77
2018-04-18T15:12:36.650Z,3.90
2018-04-18T15:15:04.148Z,3.20
2018-04-18T15:17:32.371Z,3.80
2018-04-18T15:19:59.889Z,3.53
2018-04-18T15:22:28.170Z,3.07
2018-04-18T15:24:56.435Z,3.63
2018-04-18T15:27:24.699Z,3.30
2018-04-18T15:29:52.182Z,3.20
2018-04-18T15:32:20.448Z,3.17
2018-04-18T15:34:48.711Z,3.30
2018-04-18T15:37:16.233Z,3.17
2018-04-18T15:39:43.733Z,3.57
2018-04-18T15:42:11.496Z,3.80
2018-04-18T15:44:39.058Z,4.10
2018-04-18T15:47:07.240Z,3.87
2018-04-18T15:49:35.473Z,5.10
2018-04-18T15:52:02.973Z,5.93
2018-04-18T15:54:31.259Z,7.50
2018-04-18T15:56:59.522Z,8.10
2018-04-18T15:59:26.977Z,6.23
2018-04-18T16:01:54.493Z,8.67
2018-04-18T16:04:21.988Z,9.90
2018-04-18T16:06:50.240Z,10.47
2018-04-18T16:09:17.731Z,10.17
2018-04-18T16:11:45.266Z,8.07
2018-04-18T16:14:12.760Z,8.10
2018-04-18T16:16:41.032Z,7.70
2018-04-18T16:19:08.532Z,8.67
2018-04-18T16:21:36.060Z,9.80
2018-04-18T16:24:04.282Z,9.47
2018-04-18T16:26:31.792Z,10.30
2018-04-18T16:29:00.301Z,8.77
2018-04-18T16:31:27.808Z,10.60
2018-04-18T16:33:55.317Z,9.63
2018-04-18T16:36:23.556Z,8.20
2018-04-18T16:38:51.061Z,9.67
2018-04-18T16:41:18.621Z,9.00
2018-04-18T16:43:46.145Z,11.50
2018-04-18T16:46:14.442Z,11.00
2018-04-18T16:48:42.681Z,10.83
2018-04-18T16:51:10.194Z,11.83
2018-04-18T16:53:37.675Z,12.97
2018-04-18T16:56:05.180Z,12.53
2018-04-18T16:58:33.442Z,13.50
2018-04-18T17:01:00.956Z,13.27
2018-04-18T17:03:28.461Z,14.40
2018-04-18T17:05:55.929Z,13.90
2018-04-18T17:08:24.184Z,13.80
2018-04-18T17:10:51.652Z,12.70
2018-04-18T17:13:19.136Z,12.37
2018-04-18T17:15:46.640Z,11.50
2018-04-18T17:18:14.129Z,11.30
2018-04-18T17:20:41.589Z,12.03
2018-04-18T17:23:09.844Z,13.70
2018-04-18T17:25:37.338Z,14.47
2018-04-18T17:28:05.620Z,13.93
2018-04-18T17:30:33.884Z,14.00
2018-04-18T17:33:02.169Z,13.13
2018-04-18T17:35:30.421Z,14.53
2018-04-18T17:37:57.899Z,12.87
2018-04-18T17:40:26.173Z,12.20
2018-04-18T17:42:53.664Z,12.60
2018-04-18T17:45:21.160Z,11.17
2018-04-18T17:47:48.629Z,12.70
2018-04-18T17:50:16.121Z,13.20
2018-04-18T17:52:44.380Z,13.57
2018-04-18T17:55:11.865Z,12.33
2018-04-18T17:57:40.105Z,12.97
2018-04-18T18:00:07.594Z,13.17
2018-04-18T18:02:35.077Z,11.93
2018-04-18T18:05:02.620Z,12.40
2018-04-18T18:07:30.082Z,12.27
2018-04-18T18:09:57.570Z,12.30
2018-04-18T18:12:25.137Z,13.20
2018-04-18T18:14:52.588Z,12.17
2018-04-18T18:17:20.175Z,12.37
2018-04-18T18:19:47.673Z,11.77
2018-04-18T18:22:15.176Z,12.00
2018-04-18T18:24:42.685Z,14.30
2018-04-18T18:27:10.181Z,13.27
2018-04-18T18:29:37.649Z,15.10
2018-04-18T18:32:05.160Z,13.83
2018-04-18T18:34:33.399Z,14.53
2018-04-18T18:37:00.901Z,14.70
2018-04-18T18:39:28.377Z,13.87
2018-04-18T18:41:55.850Z,13.67
2018-04-18T18:44:23.362Z,13.47
2018-04-18T18:46:51.598Z,14.43
2018-04-18T18:49:19.124Z,13.00
2018-04-18T18:51:46.589Z,13.37
2018-04-18T18:54:14.109Z,13.40
2018-04-18T18:56:42.353Z,13.57
2018-04-18T18:59:09.860Z,13.73
2018-04-18T19:01:37.362Z,12.13
2018-04-18T19:04:04.861Z,13.50
2018-04-18T19:06:33.109Z,13.07
2018-04-18T19:09:00.605Z,13.50
2018-04-18T19:11:28.842Z,13.57
2018-04-18T19:13:56.349Z,12.73
2018-04-18T19:16:24.595Z,11.70
2018-04-18T19:18:52.095Z,13.70
2018-04-18T19:21:19.598Z,12.27
2018-04-18T19:23:47.089Z,12.20
2018-04-18T19:26:15.365Z,12.63
2018-04-18T19:28:43.676Z,14.73
2018-04-18T19:31:11.152Z,13.47
2018-04-18T19:33:38.606Z,12.20
2018-04-18T19:36:06.167Z,12.70
2018-04-18T19:38:34.386Z,12.40
2018-04-18T19:41:01.909Z,13.17
2018-04-18T19:43:29.376Z,12.50
2018-04-18T19:45:56.835Z,10.97
2018-04-18T19:48:24.354Z,11.80
2018-04-18T19:50:51.814Z,10.50
2018-04-18T19:53:19.352Z,10.80
2018-04-18T19:55:47.601Z,10.87
2018-04-18T19:58:15.097Z,11.17
2018-04-18T20:00:43.353Z,11.73
2018-04-18T20:03:10.851Z,10.03
2018-04-18T20:05:38.351Z,11.67
2018-04-18T20:08:05.857Z,10.13
2018-04-18T20:10:34.105Z,10.63
2018-04-18T20:13:02.392Z,11.37
2018-04-18T20:15:30.625Z,11.07
2018-04-18T20:17:58.150Z,10.23
2018-04-18T20:20:25.629Z,10.10
2018-04-18T20:22:53.141Z,10.53
2018-04-18T20:25:21.373Z,11.97
2018-04-18T20:27:48.845Z,15.23
2018-04-18T20:30:16.349Z,13.20
2018-04-18T20:32:43.853Z,12.20
2018-04-18T20:35:11.357Z,12.23
2018-04-18T20:37:39.601Z,11.00
2018-04-18T20:40:07.118Z,12.40
2018-04-18T20:42:34.628Z,11.20
2018-04-18T20:45:02.142Z,11.07
2018-04-18T20:47:29.615Z,11.80
2018-04-18T20:49:57.085Z,11.57
2018-04-18T20:52:24.597Z,9.87
2018-04-18T20:54:52.069Z,9.60
2018-04-18T20:57:19.562Z,10.10
2018-04-18T20:59:47.037Z,10.67
2018-04-18T21:02:14.548Z,9.70
2018-04-18T21:04:42.033Z,10.53
2018-04-18T21:07:09.525Z,10.73
2018-04-18T21:09:36.993Z,10.07
2018-04-18T21:12:05.277Z,10.40
2018-04-18T21:14:33.505Z,10.60
2018-04-18T21:17:01.004Z,9.43
2018-04-18T21:19:29.264Z,10.67
2018-04-18T21:21:56.774Z,10.97
2018-04-18T21:24:24.266Z,9.53
2018-04-18T21:26:51.758Z,9.23
2018-04-18T21:29:20.121Z,10.60
2018-04-18T21:31:47.593Z,9.50
2018-04-18T21:34:15.858Z,9.90
2018-04-18T21:36:43.373Z,9.53
2018-04-18T21:39:10.888Z,9.67
2018-04-18T21:41:39.125Z,9.30
2018-04-18T21:44:06.636Z,9.40
2018-04-18T21:46:34.146Z,10.13
2018-04-18T21:49:01.642Z,10.23
2018-04-18T21:51:29.880Z,10.40
2018-04-18T21:53:57.383Z,10.50
2018-04-18T21:56:25.622Z,12.27
2018-04-18T21:58:53.126Z,11.03
2018-04-18T22:01:20.608Z,12.30
2018-04-18T22:03:48.100Z,10.70
2018-04-18T22:06:15.616Z,10.73
2018-04-18T22:08:43.102Z,10.67
2018-04-18T22:11:10.600Z,11.40
2018-04-18T22:13:38.073Z,11.40
2018-04-18T22:16:06.324Z,11.47
2018-04-18T22:18:33.833Z,11.07
2018-04-18T22:21:01.352Z,11.70
2018-04-18T22:23:28.810Z,12.57
2018-04-18T22:25:56.284Z,13.00
2018-04-18T22:28:24.548Z,12.23
2018-04-18T22:30:52.018Z,11.40
2018-04-18T22:33:20.266Z,12.17
2018-04-18T22:35:47.747Z,11.40
2018-04-18T22:38:15.999Z,11.40
2018-04-18T22:40:43.464Z,11.73
2018-04-18T22:43:10.961Z,12.20
2018-04-18T22:45:38.435Z,10.90
2018-04-18T22:48:05.917Z,11.80
2018-04-18T22:50:33.393Z,12.87
2018-04-18T22:53:00.889Z,12.80
2018-04-18T22:55:29.132Z,12.43
2018-04-18T22:57:57.411Z,12.53
2018-04-18T23:00:24.887Z,12.70
2018-04-18T23:02:53.115Z,13.23
2018-04-18T23:05:20.592Z,12.60
2018-04-18T23:07:48.089Z,13.30
2018-04-18T23:10:16.313Z,11.40
2018-04-18T23:12:43.836Z,14.07
2018-04-18T23:15:11.300Z,14.20
2018-04-18T23:17:38.763Z,12.43
2018-04-18T23:20:06.276Z,13.18
2018-04-18T23:22:34.512Z,12.70
2018-04-18T23:25:02.018Z,12.80
2018-04-18T23:27:30.273Z,12.80
2018-04-18T23:29:57.795Z,12.90
2018-04-18T23:32:25.269Z,13.02
2018-04-18T23:34:52.760Z,13.00
2018-04-18T23:37:20.228Z,13.27
2018-04-18T23:39:48.485Z,12.30
2018-04-18T23:42:15.977Z,14.75
2018-04-18T23:44:43.469Z,13.02
2018-04-18T23:47:10.969Z,13.60
2018-04-18T23:49:38.453Z,13.27
2018-04-18T23:52:05.976Z,13.23
2018-04-18T23:54:33.463Z,13.65
2018-04-18T23:57:01.720Z,14.15
2018-04-18T23:59:29.181Z,14.02
